sensor_id;sensor_type;location;lat;lon;timestamp;temperature;humidity
38325;DHT22;24126;52.672;13.622;2023-03-03T00:01:14;6.00;72.10
38325;DHT22;24126;52.672;13.622;2023-03-03T00:03:41;6.00;72.10
38325;DHT22;24126;52.672;13.622;2023-03-03T00:06:09;5.90;72.10
38325;DHT22;24126;52.672;13.622;2023-03-03T00:08:36;5.90;72.10
38325;DHT22;24126;52.672;13.622;2023-03-03T00:11:04;5.90;72.20
38325;DHT22;24126;52.672;13.622;2023-03-03T00:13:36;5.90;72.30
38325;DHT22;24126;52.672;13.622;2023-03-03T00:16:10;5.90;72.40
38325;DHT22;24126;52.672;13.622;2023-03-03T00:18:40;5.90;72.40
38325;DHT22;24126;52.672;13.622;2023-03-03T00:21:14;5.90;72.40
38325;DHT22;24126;52.672;13.622;2023-03-03T00:23:45;5.90;72.40
38325;DHT22;24126;52.672;13.622;2023-03-03T00:26:17;6.00;72.50
38325;DHT22;24126;52.672;13.622;2023-03-03T00:28:51;6.00;72.50
38325;DHT22;24126;52.672;13.622;2023-03-03T00:31:20;6.00;72.40
38325;DHT22;24126;52.672;13.622;2023-03-03T00:33:49;6.00;72.50
38325;DHT22;24126;52.672;13.622;2023-03-03T00:36:36;6.00;72.40
38325;DHT22;24126;52.672;13.622;2023-03-03T00:39:22;6.00;72.40
38325;DHT22;24126;52.672;13.622;2023-03-03T00:41:52;6.00;72.40
38325;DHT22;24126;52.672;13.622;2023-03-03T00:49:55;6.00;72.40
38325;DHT22;24126;52.672;13.622;2023-03-03T00:52:26;6.00;72.40
38325;DHT22;24126;52.672;13.622;2023-03-03T00:54:53;6.00;72.50
38325;DHT22;24126;52.672;13.622;2023-03-03T00:57:20;6.00;72.50
38325;DHT22;24126;52.672;13.622;2023-03-03T00:59:49;6.00;72.50
38325;DHT22;24126;52.672;13.622;2023-03-03T01:02:17;6.00;72.40
38325;DHT22;24126;52.672;13.622;2023-03-03T01:04:45;6.00;72.40
38325;DHT22;24126;52.672;13.622;2023-03-03T01:07:14;6.00;72.30
38325;DHT22;24126;52.672;13.622;2023-03-03T01:09:41;6.00;72.40
38325;DHT22;24126;52.672;13.622;2023-03-03T01:12:08;6.00;72.40
38325;DHT22;24126;52.672;13.622;2023-03-03T01:14:36;6.00;72.30
38325;DHT22;24126;52.672;13.622;2023-03-03T01:17:03;6.00;72.30
38325;DHT22;24126;52.672;13.622;2023-03-03T01:19:31;6.00;72.40
38325;DHT22;24126;52.672;13.622;2023-03-03T01:21:58;6.00;72.40
38325;DHT22;24126;52.672;13.622;2023-03-03T01:24:25;6.00;72.60
38325;DHT22;24126;52.672;13.622;2023-03-03T01:26:52;5.90;72.50
38325;DHT22;24126;52.672;13.622;2023-03-03T01:29:19;5.90;72.50
38325;DHT22;24126;52.672;13.622;2023-03-03T01:31:46;6.00;72.60
38325;DHT22;24126;52.672;13.622;2023-03-03T01:34:13;6.00;72.60
38325;DHT22;24126;52.672;13.622;2023-03-03T01:36:40;6.00;72.50
38325;DHT22;24126;52.672;13.622;2023-03-03T01:39:09;6.00;72.60
38325;DHT22;24126;52.672;13.622;2023-03-03T01:41:36;6.00;72.60
38325;DHT22;24126;52.672;13.622;2023-03-03T01:44:03;6.00;72.60
38325;DHT22;24126;52.672;13.622;2023-03-03T01:46:32;6.00;72.60
38325;DHT22;24126;52.672;13.622;2023-03-03T01:49:20;6.00;72.70
38325;DHT22;24126;52.672;13.622;2023-03-03T01:51:53;5.90;72.70
38325;DHT22;24126;52.672;13.622;2023-03-03T01:54:28;5.90;72.70
38325;DHT22;24126;52.672;13.622;2023-03-03T01:56:57;5.90;72.70
38325;DHT22;24126;52.672;13.622;2023-03-03T01:59:26;6.00;72.70
38325;DHT22;24126;52.672;13.622;2023-03-03T02:01:55;6.00;72.60
38325;DHT22;24126;52.672;13.622;2023-03-03T02:04:22;5.90;72.60
38325;DHT22;24126;52.672;13.622;2023-03-03T02:06:53;5.90;72.70
38325;DHT22;24126;52.672;13.622;2023-03-03T02:11:52;5.90;72.70
38325;DHT22;24126;52.672;13.622;2023-03-03T02:14:23;5.90;72.70
38325;DHT22;24126;52.672;13.622;2023-03-03T02:16:50;5.90;72.80
38325;DHT22;24126;52.672;13.622;2023-03-03T02:19:23;5.90;72.80
38325;DHT22;24126;52.672;13.622;2023-03-03T02:21:53;5.90;72.80
38325;DHT22;24126;52.672;13.622;2023-03-03T02:26:47;5.90;72.80
38325;DHT22;24126;52.672;13.622;2023-03-03T02:29:15;6.00;72.90
38325;DHT22;24126;52.672;13.622;2023-03-03T02:31:42;5.90;72.80
38325;DHT22;24126;52.672;13.622;2023-03-03T02:34:10;5.90;72.70
38325;DHT22;24126;52.672;13.622;2023-03-03T02:36:37;5.90;72.80
38325;DHT22;24126;52.672;13.622;2023-03-03T02:39:09;5.90;72.80
38325;DHT22;24126;52.672;13.622;2023-03-03T02:41:43;5.90;72.80
38325;DHT22;24126;52.672;13.622;2023-03-03T02:44:16;5.90;72.80
38325;DHT22;24126;52.672;13.622;2023-03-03T02:46:45;5.80;72.80
38325;DHT22;24126;52.672;13.622;2023-03-03T02:49:15;5.90;72.90
38325;DHT22;24126;52.672;13.622;2023-03-03T02:51:43;5.90;72.80
38325;DHT22;24126;52.672;13.622;2023-03-03T02:54:11;5.80;72.80
38325;DHT22;24126;52.672;13.622;2023-03-03T02:56:38;5.80;72.80
38325;DHT22;24126;52.672;13.622;2023-03-03T02:59:05;5.80;72.90
38325;DHT22;24126;52.672;13.622;2023-03-03T03:01:38;5.80;72.90
38325;DHT22;24126;52.672;13.622;2023-03-03T03:04:14;5.80;72.90
38325;DHT22;24126;52.672;13.622;2023-03-03T03:06:44;5.80;72.90
38325;DHT22;24126;52.672;13.622;2023-03-03T03:09:12;5.80;72.90
38325;DHT22;24126;52.672;13.622;2023-03-03T03:11:40;5.80;72.70
38325;DHT22;24126;52.672;13.622;2023-03-03T03:14:09;5.80;72.90
38325;DHT22;24126;52.672;13.622;2023-03-03T03:16:37;5.70;72.80
38325;DHT22;24126;52.672;13.622;2023-03-03T03:19:05;5.70;72.90
38325;DHT22;24126;52.672;13.622;2023-03-03T03:21:33;5.70;72.80
38325;DHT22;24126;52.672;13.622;2023-03-03T03:24:01;5.70;72.80
38325;DHT22;24126;52.672;13.622;2023-03-03T03:26:29;5.70;72.80
38325;DHT22;24126;52.672;13.622;2023-03-03T03:28:56;5.60;72.80
38325;DHT22;24126;52.672;13.622;2023-03-03T03:31:24;5.60;72.80
38325;DHT22;24126;52.672;13.622;2023-03-03T03:33:51;5.70;72.90
38325;DHT22;24126;52.672;13.622;2023-03-03T03:36:19;5.70;72.90
38325;DHT22;24126;52.672;13.622;2023-03-03T03:38:46;5.70;72.90
38325;DHT22;24126;52.672;13.622;2023-03-03T03:41:14;5.70;72.80
38325;DHT22;24126;52.672;13.622;2023-03-03T03:43:41;5.70;72.80
38325;DHT22;24126;52.672;13.622;2023-03-03T03:46:09;5.70;72.80
38325;DHT22;24126;52.672;13.622;2023-03-03T03:48:37;5.70;72.80
38325;DHT22;24126;52.672;13.622;2023-03-03T03:51:05;5.60;72.60
38325;DHT22;24126;52.672;13.622;2023-03-03T03:53:33;5.60;72.70
38325;DHT22;24126;52.672;13.622;2023-03-03T03:56:00;5.60;72.70
38325;DHT22;24126;52.672;13.622;2023-03-03T03:58:28;5.60;72.70
38325;DHT22;24126;52.672;13.622;2023-03-03T04:01:01;5.60;72.70
38325;DHT22;24126;52.672;13.622;2023-03-03T04:03:28;5.60;72.80
38325;DHT22;24126;52.672;13.622;2023-03-03T04:05:55;5.60;72.80
38325;DHT22;24126;52.672;13.622;2023-03-03T04:08:22;5.60;72.90
38325;DHT22;24126;52.672;13.622;2023-03-03T04:10:50;5.60;73.00
38325;DHT22;24126;52.672;13.622;2023-03-03T04:13:17;5.70;72.80
38325;DHT22;24126;52.672;13.622;2023-03-03T04:15:44;5.70;72.50
38325;DHT22;24126;52.672;13.622;2023-03-03T04:18:11;5.60;72.40
38325;DHT22;24126;52.672;13.622;2023-03-03T04:20:39;5.60;72.40
38325;DHT22;24126;52.672;13.622;2023-03-03T04:23:07;5.60;72.50
38325;DHT22;24126;52.672;13.622;2023-03-03T04:25:34;5.60;72.40
38325;DHT22;24126;52.672;13.622;2023-03-03T04:28:03;5.50;72.40
38325;DHT22;24126;52.672;13.622;2023-03-03T04:30:31;5.50;72.60
38325;DHT22;24126;52.672;13.622;2023-03-03T04:32:58;5.50;72.60
38325;DHT22;24126;52.672;13.622;2023-03-03T04:35:26;5.40;72.60
38325;DHT22;24126;52.672;13.622;2023-03-03T04:37:53;5.50;72.60
38325;DHT22;24126;52.672;13.622;2023-03-03T04:40:20;5.50;72.60
38325;DHT22;24126;52.672;13.622;2023-03-03T04:42:49;5.40;72.50
38325;DHT22;24126;52.672;13.622;2023-03-03T04:45:16;5.40;72.50
38325;DHT22;24126;52.672;13.622;2023-03-03T04:47:45;5.40;72.60
38325;DHT22;24126;52.672;13.622;2023-03-03T04:50:13;5.40;72.60
38325;DHT22;24126;52.672;13.622;2023-03-03T04:52:40;5.40;72.60
38325;DHT22;24126;52.672;13.622;2023-03-03T04:55:08;5.40;72.70
38325;DHT22;24126;52.672;13.622;2023-03-03T04:57:36;5.40;72.70
38325;DHT22;24126;52.672;13.622;2023-03-03T05:00:04;5.40;72.60
38325;DHT22;24126;52.672;13.622;2023-03-03T05:02:31;5.30;72.70
38325;DHT22;24126;52.672;13.622;2023-03-03T05:04:59;5.40;73.60
38325;DHT22;24126;52.672;13.622;2023-03-03T05:07:26;5.40;72.80
38325;DHT22;24126;52.672;13.622;2023-03-03T05:09:53;5.40;72.60
38325;DHT22;24126;52.672;13.622;2023-03-03T05:12:21;5.40;72.40
38325;DHT22;24126;52.672;13.622;2023-03-03T05:14:48;5.50;72.40
38325;DHT22;24126;52.672;13.622;2023-03-03T05:17:15;5.50;72.30
38325;DHT22;24126;52.672;13.622;2023-03-03T05:19:43;5.50;72.30
38325;DHT22;24126;52.672;13.622;2023-03-03T05:22:10;5.50;72.00
38325;DHT22;24126;52.672;13.622;2023-03-03T05:24:37;5.50;72.10
38325;DHT22;24126;52.672;13.622;2023-03-03T05:27:04;5.40;72.10
38325;DHT22;24126;52.672;13.622;2023-03-03T05:29:31;5.40;72.10
38325;DHT22;24126;52.672;13.622;2023-03-03T05:31:58;5.40;72.10
38325;DHT22;24126;52.672;13.622;2023-03-03T05:34:25;5.40;72.20
38325;DHT22;24126;52.672;13.622;2023-03-03T05:36:52;5.30;72.30
38325;DHT22;24126;52.672;13.622;2023-03-03T05:39:19;5.40;72.30
38325;DHT22;24126;52.672;13.622;2023-03-03T05:41:46;5.30;72.50
38325;DHT22;24126;52.672;13.622;2023-03-03T05:44:13;5.30;72.30
38325;DHT22;24126;52.672;13.622;2023-03-03T05:46:41;5.30;72.20
38325;DHT22;24126;52.672;13.622;2023-03-03T05:49:08;5.30;72.10
38325;DHT22;24126;52.672;13.622;2023-03-03T05:51:35;5.20;72.10
38325;DHT22;24126;52.672;13.622;2023-03-03T05:54:02;5.20;72.20
38325;DHT22;24126;52.672;13.622;2023-03-03T05:56:29;5.20;72.20
38325;DHT22;24126;52.672;13.622;2023-03-03T05:58:56;5.20;72.20
38325;DHT22;24126;52.672;13.622;2023-03-03T06:01:23;5.20;72.40
38325;DHT22;24126;52.672;13.622;2023-03-03T06:03:51;5.20;72.40
38325;DHT22;24126;52.672;13.622;2023-03-03T06:06:18;5.10;72.40
38325;DHT22;24126;52.672;13.622;2023-03-03T06:08:46;5.10;72.40
38325;DHT22;24126;52.672;13.622;2023-03-03T06:11:13;5.10;72.50
38325;DHT22;24126;52.672;13.622;2023-03-03T06:13:41;5.10;72.50
38325;DHT22;24126;52.672;13.622;2023-03-03T06:16:08;5.10;72.50
38325;DHT22;24126;52.672;13.622;2023-03-03T06:18:35;5.10;72.40
38325;DHT22;24126;52.672;13.622;2023-03-03T06:21:03;5.10;72.40
38325;DHT22;24126;52.672;13.622;2023-03-03T06:23:30;5.10;72.30
38325;DHT22;24126;52.672;13.622;2023-03-03T06:25:57;5.10;72.40
38325;DHT22;24126;52.672;13.622;2023-03-03T06:28:23;5.20;72.50
38325;DHT22;24126;52.672;13.622;2023-03-03T06:30:54;5.20;72.50
38325;DHT22;24126;52.672;13.622;2023-03-03T06:33:21;5.20;72.50
38325;DHT22;24126;52.672;13.622;2023-03-03T06:35:52;5.20;72.30
38325;DHT22;24126;52.672;13.622;2023-03-03T06:38:19;5.10;72.30
38325;DHT22;24126;52.672;13.622;2023-03-03T06:40:46;5.10;72.40
38325;DHT22;24126;52.672;13.622;2023-03-03T06:43:14;5.10;72.50
38325;DHT22;24126;52.672;13.622;2023-03-03T06:45:41;5.10;72.60
38325;DHT22;24126;52.672;13.622;2023-03-03T06:48:08;5.10;72.50
38325;DHT22;24126;52.672;13.622;2023-03-03T06:50:35;5.20;72.60
38325;DHT22;24126;52.672;13.622;2023-03-03T06:53:09;5.20;72.50
38325;DHT22;24126;52.672;13.622;2023-03-03T06:55:37;5.10;72.50
38325;DHT22;24126;52.672;13.622;2023-03-03T06:58:08;5.20;72.70
38325;DHT22;24126;52.672;13.622;2023-03-03T07:00:37;5.20;72.70
38325;DHT22;24126;52.672;13.622;2023-03-03T07:03:07;5.20;72.80
38325;DHT22;24126;52.672;13.622;2023-03-03T07:05:38;5.20;72.70
38325;DHT22;24126;52.672;13.622;2023-03-03T07:08:05;5.20;72.70
38325;DHT22;24126;52.672;13.622;2023-03-03T07:10:36;5.20;72.80
38325;DHT22;24126;52.672;13.622;2023-03-03T07:15:47;5.30;72.60
38325;DHT22;24126;52.672;13.622;2023-03-03T07:18:25;5.30;72.60
38325;DHT22;24126;52.672;13.622;2023-03-03T07:20:57;5.30;72.60
38325;DHT22;24126;52.672;13.622;2023-03-03T07:23:27;5.30;72.60
38325;DHT22;24126;52.672;13.622;2023-03-03T07:25:57;5.30;72.70
38325;DHT22;24126;52.672;13.622;2023-03-03T07:28:25;5.30;72.80
38325;DHT22;24126;52.672;13.622;2023-03-03T07:30:53;5.30;72.70
38325;DHT22;24126;52.672;13.622;2023-03-03T07:35:51;5.30;72.60
38325;DHT22;24126;52.672;13.622;2023-03-03T07:38:23;5.30;72.80
38325;DHT22;24126;52.672;13.622;2023-03-03T07:40:51;5.30;72.80
38325;DHT22;24126;52.672;13.622;2023-03-03T07:48:37;5.40;72.60
38325;DHT22;24126;52.672;13.622;2023-03-03T07:51:11;5.40;72.60
38325;DHT22;24126;52.672;13.622;2023-03-03T07:53:39;5.40;72.70
38325;DHT22;24126;52.672;13.622;2023-03-03T07:59:15;5.40;72.80
38325;DHT22;24126;52.672;13.622;2023-03-03T08:01:46;5.50;72.80
38325;DHT22;24126;52.672;13.622;2023-03-03T08:06:45;5.50;72.70
38325;DHT22;24126;52.672;13.622;2023-03-03T08:11:44;5.60;72.60
38325;DHT22;24126;52.672;13.622;2023-03-03T08:14:14;5.60;72.60
38325;DHT22;24126;52.672;13.622;2023-03-03T08:16:42;5.60;72.70
38325;DHT22;24126;52.672;13.622;2023-03-03T08:19:09;5.60;72.70
38325;DHT22;24126;52.672;13.622;2023-03-03T08:21:37;5.70;72.80
38325;DHT22;24126;52.672;13.622;2023-03-03T08:24:04;5.70;72.60
38325;DHT22;24126;52.672;13.622;2023-03-03T08:26:31;5.80;72.80
38325;DHT22;24126;52.672;13.622;2023-03-03T08:28:58;5.80;72.60
38325;DHT22;24126;52.672;13.622;2023-03-03T08:31:26;5.80;72.60
38325;DHT22;24126;52.672;13.622;2023-03-03T08:33:53;5.80;72.50
38325;DHT22;24126;52.672;13.622;2023-03-03T08:36:20;5.90;72.60
38325;DHT22;24126;52.672;13.622;2023-03-03T08:38:47;5.90;72.50
38325;DHT22;24126;52.672;13.622;2023-03-03T08:41:14;5.90;72.50
38325;DHT22;24126;52.672;13.622;2023-03-03T08:43:41;5.90;72.40
38325;DHT22;24126;52.672;13.622;2023-03-03T08:46:10;6.00;72.60
38325;DHT22;24126;52.672;13.622;2023-03-03T08:48:37;6.00;72.50
38325;DHT22;24126;52.672;13.622;2023-03-03T08:51:04;6.10;72.60
38325;DHT22;24126;52.672;13.622;2023-03-03T08:53:31;6.10;72.50
38325;DHT22;24126;52.672;13.622;2023-03-03T08:56:01;6.10;72.40
38325;DHT22;24126;52.672;13.622;2023-03-03T08:58:28;6.10;72.40
38325;DHT22;24126;52.672;13.622;2023-03-03T09:00:55;6.20;72.30
38325;DHT22;24126;52.672;13.622;2023-03-03T09:03:24;6.20;72.20
38325;DHT22;24126;52.672;13.622;2023-03-03T09:05:51;6.20;72.20
38325;DHT22;24126;52.672;13.622;2023-03-03T09:08:18;6.20;72.20
38325;DHT22;24126;52.672;13.622;2023-03-03T09:10:45;6.30;72.40
38325;DHT22;24126;52.672;13.622;2023-03-03T09:13:16;6.30;72.10
38325;DHT22;24126;52.672;13.622;2023-03-03T09:15:44;6.40;72.20
38325;DHT22;24126;52.672;13.622;2023-03-03T09:18:15;6.40;72.10
38325;DHT22;24126;52.672;13.622;2023-03-03T09:20:44;6.40;72.00
38325;DHT22;24126;52.672;13.622;2023-03-03T09:23:27;6.40;71.90
38325;DHT22;24126;52.672;13.622;2023-03-03T09:25:54;6.50;71.90
38325;DHT22;24126;52.672;13.622;2023-03-03T09:28:28;6.50;71.80
38325;DHT22;24126;52.672;13.622;2023-03-03T09:30:57;6.50;71.80
38325;DHT22;24126;52.672;13.622;2023-03-03T09:33:26;6.60;71.80
38325;DHT22;24126;52.672;13.622;2023-03-03T09:35:56;6.60;71.70
38325;DHT22;24126;52.672;13.622;2023-03-03T09:38:25;6.60;71.50
38325;DHT22;24126;52.672;13.622;2023-03-03T09:48:41;6.70;71.60
38325;DHT22;24126;52.672;13.622;2023-03-03T09:51:26;6.80;71.70
38325;DHT22;24126;52.672;13.622;2023-03-03T09:54:03;6.80;71.70
38325;DHT22;24126;52.672;13.622;2023-03-03T09:56:34;6.90;71.60
38325;DHT22;24126;52.672;13.622;2023-03-03T10:02:02;6.90;71.50
38325;DHT22;24126;52.672;13.622;2023-03-03T10:12:04;7.10;71.40
38325;DHT22;24126;52.672;13.622;2023-03-03T10:17:16;7.20;71.60
38325;DHT22;24126;52.672;13.622;2023-03-03T10:22:19;7.30;71.20
38325;DHT22;24126;52.672;13.622;2023-03-03T10:27:25;7.30;71.10
38325;DHT22;24126;52.672;13.622;2023-03-03T10:30:03;7.30;71.00
38325;DHT22;24126;52.672;13.622;2023-03-03T10:35:25;7.40;71.00
38325;DHT22;24126;52.672;13.622;2023-03-03T10:38:09;7.40;71.20
38325;DHT22;24126;52.672;13.622;2023-03-03T10:58:41;7.60;70.80
38325;DHT22;24126;52.672;13.622;2023-03-03T11:03:56;7.80;70.90
38325;DHT22;24126;52.672;13.622;2023-03-03T11:06:35;7.80;70.60
38325;DHT22;24126;52.672;13.622;2023-03-03T11:09:18;7.80;70.50
38325;DHT22;24126;52.672;13.622;2023-03-03T11:14:36;7.90;70.40
38325;DHT22;24126;52.672;13.622;2023-03-03T11:17:15;7.90;70.40
38325;DHT22;24126;52.672;13.622;2023-03-03T11:22:41;7.90;70.60
38325;DHT22;24126;52.672;13.622;2023-03-03T11:27:59;7.90;70.60
38325;DHT22;24126;52.672;13.622;2023-03-03T11:30:39;8.00;70.50
38325;DHT22;24126;52.672;13.622;2023-03-03T11:33:09;8.00;70.60
38325;DHT22;24126;52.672;13.622;2023-03-03T11:38:18;8.10;70.70
38325;DHT22;24126;52.672;13.622;2023-03-03T11:45:47;8.20;70.50
38325;DHT22;24126;52.672;13.622;2023-03-03T11:49:01;8.20;70.30
38325;DHT22;24126;52.672;13.622;2023-03-03T11:53:43;8.30;70.00
38325;DHT22;24126;52.672;13.622;2023-03-03T12:04:02;8.30;70.10
38325;DHT22;24126;52.672;13.622;2023-03-03T12:06:32;8.40;70.00
38325;DHT22;24126;52.672;13.622;2023-03-03T12:14:13;8.40;69.70
38325;DHT22;24126;52.672;13.622;2023-03-03T12:16:57;8.40;69.60
38325;DHT22;24126;52.672;13.622;2023-03-03T12:24:48;8.40;69.70
38325;DHT22;24126;52.672;13.622;2023-03-03T12:30:15;8.50;70.10
38325;DHT22;24126;52.672;13.622;2023-03-03T12:41:01;8.50;70.00
38325;DHT22;24126;52.672;13.622;2023-03-03T12:43:39;8.50;70.10
38325;DHT22;24126;52.672;13.622;2023-03-03T12:48:50;8.60;70.10
38325;DHT22;24126;52.672;13.622;2023-03-03T12:59:12;8.60;70.00
38325;DHT22;24126;52.672;13.622;2023-03-03T13:06:51;8.60;70.10
38325;DHT22;24126;52.672;13.622;2023-03-03T13:09:26;8.60;69.90
38325;DHT22;24126;52.672;13.622;2023-03-03T13:19:32;8.60;70.00
38325;DHT22;24126;52.672;13.622;2023-03-03T13:22:03;8.70;70.10
38325;DHT22;24126;52.672;13.622;2023-03-03T13:27:05;8.70;69.70
38325;DHT22;24126;52.672;13.622;2023-03-03T13:29:36;8.70;69.60
38325;DHT22;24126;52.672;13.622;2023-03-03T13:32:14;8.60;69.60
38325;DHT22;24126;52.672;13.622;2023-03-03T13:37:20;8.60;69.80
38325;DHT22;24126;52.672;13.622;2023-03-03T13:42:39;8.70;69.90
38325;DHT22;24126;52.672;13.622;2023-03-03T13:47:52;8.70;69.90
38325;DHT22;24126;52.672;13.622;2023-03-03T13:50:30;8.80;69.90
38325;DHT22;24126;52.672;13.622;2023-03-03T13:53:03;8.80;69.90
38325;DHT22;24126;52.672;13.622;2023-03-03T13:55:43;8.80;69.70
38325;DHT22;24126;52.672;13.622;2023-03-03T14:00:42;8.90;69.60
38325;DHT22;24126;52.672;13.622;2023-03-03T14:03:14;8.90;69.60
38325;DHT22;24126;52.672;13.622;2023-03-03T14:05:48;8.90;69.50
38325;DHT22;24126;52.672;13.622;2023-03-03T14:08:30;8.90;69.50
38325;DHT22;24126;52.672;13.622;2023-03-03T14:13:43;8.80;69.40
38325;DHT22;24126;52.672;13.622;2023-03-03T14:18:56;8.80;69.80
38325;DHT22;24126;52.672;13.622;2023-03-03T14:21:28;8.80;70.00
38325;DHT22;24126;52.672;13.622;2023-03-03T14:26:55;8.80;70.10
38325;DHT22;24126;52.672;13.622;2023-03-03T14:31:49;8.90;70.10
38325;DHT22;24126;52.672;13.622;2023-03-03T14:36:43;8.90;69.90
38325;DHT22;24126;52.672;13.622;2023-03-03T14:39:31;9.00;69.80
38325;DHT22;24126;52.672;13.622;2023-03-03T14:41:59;9.00;69.80
38325;DHT22;24126;52.672;13.622;2023-03-03T14:44:28;9.00;69.70
38325;DHT22;24126;52.672;13.622;2023-03-03T14:47:03;9.00;69.80
38325;DHT22;24126;52.672;13.622;2023-03-03T14:49:32;9.00;69.80
38325;DHT22;24126;52.672;13.622;2023-03-03T14:52:00;9.00;69.80
38325;DHT22;24126;52.672;13.622;2023-03-03T14:54:38;9.10;69.70
38325;DHT22;24126;52.672;13.622;2023-03-03T14:59:32;9.10;69.60
38325;DHT22;24126;52.672;13.622;2023-03-03T15:02:05;9.10;69.60
38325;DHT22;24126;52.672;13.622;2023-03-03T15:04:36;9.20;69.60
38325;DHT22;24126;52.672;13.622;2023-03-03T15:09:50;9.20;69.30
38325;DHT22;24126;52.672;13.622;2023-03-03T15:12:37;9.20;69.30
38325;DHT22;24126;52.672;13.622;2023-03-03T15:20:17;9.20;69.30
38325;DHT22;24126;52.672;13.622;2023-03-03T15:22:50;9.20;69.30
38325;DHT22;24126;52.672;13.622;2023-03-03T15:25:42;9.20;69.30
38325;DHT22;24126;52.672;13.622;2023-03-03T15:28:17;9.20;69.30
38325;DHT22;24126;52.672;13.622;2023-03-03T15:35:58;9.10;69.60
38325;DHT22;24126;52.672;13.622;2023-03-03T15:38:41;9.10;69.70
38325;DHT22;24126;52.672;13.622;2023-03-03T15:41:20;9.10;69.60
38325;DHT22;24126;52.672;13.622;2023-03-03T15:43:55;9.10;69.70
38325;DHT22;24126;52.672;13.622;2023-03-03T15:46:26;9.00;69.80
38325;DHT22;24126;52.672;13.622;2023-03-03T15:49:09;9.00;69.80
38325;DHT22;24126;52.672;13.622;2023-03-03T15:54:26;9.00;70.00
38325;DHT22;24126;52.672;13.622;2023-03-03T15:56:55;9.00;70.10
38325;DHT22;24126;52.672;13.622;2023-03-03T16:02:09;9.00;70.20
38325;DHT22;24126;52.672;13.622;2023-03-03T16:04:50;9.00;70.20
38325;DHT22;24126;52.672;13.622;2023-03-03T16:09:58;9.00;70.40
38325;DHT22;24126;52.672;13.622;2023-03-03T16:12:43;9.00;70.40
38325;DHT22;24126;52.672;13.622;2023-03-03T16:15:26;8.90;70.40
38325;DHT22;24126;52.672;13.622;2023-03-03T16:20:24;9.00;70.50
38325;DHT22;24126;52.672;13.622;2023-03-03T16:30:49;9.00;70.40
38325;DHT22;24126;52.672;13.622;2023-03-03T16:33:35;9.00;70.40
38325;DHT22;24126;52.672;13.622;2023-03-03T16:36:12;9.00;70.30
38325;DHT22;24126;52.672;13.622;2023-03-03T16:38:51;9.00;70.20
38325;DHT22;24126;52.672;13.622;2023-03-03T16:41:25;8.90;70.10
38325;DHT22;24126;52.672;13.622;2023-03-03T16:46:33;8.80;70.10
38325;DHT22;24126;52.672;13.622;2023-03-03T16:49:03;8.80;70.90
38325;DHT22;24126;52.672;13.622;2023-03-03T16:59:36;8.70;69.80
38325;DHT22;24126;52.672;13.622;2023-03-03T17:04:45;8.60;69.80
38325;DHT22;24126;52.672;13.622;2023-03-03T17:07:20;8.50;69.70
38325;DHT22;24126;52.672;13.622;2023-03-03T17:09:51;8.50;69.60
38325;DHT22;24126;52.672;13.622;2023-03-03T17:12:37;8.40;69.70
38325;DHT22;24126;52.672;13.622;2023-03-03T17:15:27;8.40;69.60
38325;DHT22;24126;52.672;13.622;2023-03-03T17:18:07;8.30;69.60
38325;DHT22;24126;52.672;13.622;2023-03-03T17:26:11;8.10;69.70
38325;DHT22;24126;52.672;13.622;2023-03-03T17:28:50;8.10;69.90
38325;DHT22;24126;52.672;13.622;2023-03-03T17:31:29;8.00;70.10
38325;DHT22;24126;52.672;13.622;2023-03-03T17:34:13;8.00;70.20
38325;DHT22;24126;52.672;13.622;2023-03-03T17:36:49;7.90;70.30
38325;DHT22;24126;52.672;13.622;2023-03-03T17:42:09;8.00;70.70
38325;DHT22;24126;52.672;13.622;2023-03-03T17:44:43;8.00;70.90
38325;DHT22;24126;52.672;13.622;2023-03-03T17:47:14;8.00;70.90
38325;DHT22;24126;52.672;13.622;2023-03-03T17:52:19;8.00;71.00
38325;DHT22;24126;52.672;13.622;2023-03-03T17:57:21;8.10;71.30
38325;DHT22;24126;52.672;13.622;2023-03-03T18:02:36;8.20;71.20
38325;DHT22;24126;52.672;13.622;2023-03-03T18:10:50;8.20;71.30
38325;DHT22;24126;52.672;13.622;2023-03-03T18:16:23;8.20;71.40
38325;DHT22;24126;52.672;13.622;2023-03-03T18:21:30;8.20;71.50
38325;DHT22;24126;52.672;13.622;2023-03-03T18:25:08;8.20;71.50
38325;DHT22;24126;52.672;13.622;2023-03-03T18:27:12;8.30;71.60
38325;DHT22;24126;52.672;13.622;2023-03-03T18:29:39;8.30;71.50
38325;DHT22;24126;52.672;13.622;2023-03-03T18:32:26;8.30;71.50
38325;DHT22;24126;52.672;13.622;2023-03-03T18:35:21;8.30;71.50
38325;DHT22;24126;52.672;13.622;2023-03-03T18:37:49;8.30;71.50
38325;DHT22;24126;52.672;13.622;2023-03-03T18:42:43;8.40;71.60
38325;DHT22;24126;52.672;13.622;2023-03-03T18:47:56;8.30;71.50
38325;DHT22;24126;52.672;13.622;2023-03-03T19:00:51;8.30;71.80
38325;DHT22;24126;52.672;13.622;2023-03-03T19:06:07;8.30;71.80
38325;DHT22;24126;52.672;13.622;2023-03-03T19:08:46;8.30;71.80
38325;DHT22;24126;52.672;13.622;2023-03-03T19:16:40;8.30;71.80
38325;DHT22;24126;52.672;13.622;2023-03-03T19:19:11;8.30;71.90
38325;DHT22;24126;52.672;13.622;2023-03-03T19:21:39;8.30;71.90
38325;DHT22;24126;52.672;13.622;2023-03-03T19:29:31;8.30;72.10
38325;DHT22;24126;52.672;13.622;2023-03-03T19:32:15;8.30;72.20
38325;DHT22;24126;52.672;13.622;2023-03-03T19:35:07;8.30;72.20
38325;DHT22;24126;52.672;13.622;2023-03-03T19:37:46;8.30;72.30
38325;DHT22;24126;52.672;13.622;2023-03-03T19:43:07;8.30;72.40
38325;DHT22;24126;52.672;13.622;2023-03-03T19:48:05;8.30;72.50
38325;DHT22;24126;52.672;13.622;2023-03-03T19:53:14;8.40;72.50
38325;DHT22;24126;52.672;13.622;2023-03-03T20:03:51;8.40;72.50
38325;DHT22;24126;52.672;13.622;2023-03-03T20:06:35;8.40;72.50
38325;DHT22;24126;52.672;13.622;2023-03-03T20:09:16;8.50;72.50
38325;DHT22;24126;52.672;13.622;2023-03-03T20:20:05;8.50;72.40
38325;DHT22;24126;52.672;13.622;2023-03-03T20:27:58;8.50;72.40
38325;DHT22;24126;52.672;13.622;2023-03-03T20:30:34;8.50;72.30
38325;DHT22;24126;52.672;13.622;2023-03-03T20:33:10;8.50;72.30
38325;DHT22;24126;52.672;13.622;2023-03-03T20:35:53;8.50;72.20
38325;DHT22;24126;52.672;13.622;2023-03-03T20:38:28;8.50;72.10
38325;DHT22;24126;52.672;13.622;2023-03-03T20:51:29;8.50;71.10
38325;DHT22;24126;52.672;13.622;2023-03-03T20:56:46;8.50;70.70
38325;DHT22;24126;52.672;13.622;2023-03-03T21:01:52;8.50;70.20
38325;DHT22;24126;52.672;13.622;2023-03-03T21:04:25;8.50;70.20
38325;DHT22;24126;52.672;13.622;2023-03-03T21:06:52;8.50;70.20
38325;DHT22;24126;52.672;13.622;2023-03-03T21:09:21;8.50;70.10
38325;DHT22;24126;52.672;13.622;2023-03-03T21:11:48;8.50;69.90
38325;DHT22;24126;52.672;13.622;2023-03-03T21:14:19;8.50;69.80
38325;DHT22;24126;52.672;13.622;2023-03-03T21:16:48;8.50;69.80
38325;DHT22;24126;52.672;13.622;2023-03-03T21:19:23;8.50;70.40